sensor_id;sensor_type;location;lat;lon;timestamp;pressure;altitude;pressure_sealevel;temperature;humidity
46876;BME280;32866;50.160;14.768;2022-12-11T00:01:44;98442.16;;;-1.28;100.00
46876;BME280;32866;50.160;14.768;2022-12-11T00:04:09;98482.53;;;-1.03;100.00
46876;BME280;32866;50.160;14.768;2022-12-11T00:06:35;98445.63;;;-1.24;100.00
46876;BME280;32866;50.160;14.768;2022-12-11T00:09:00;98462.53;;;-1.20;100.00
46876;BME280;32866;50.160;14.768;2022-12-11T00:11:26;98477.91;;;-1.09;100.00
46876;BME280;32866;50.160;14.768;2022-12-11T00:13:51;98485.22;;;-0.99;100.00
46876;BME280;32866;50.160;14.768;2022-12-11T00:16:17;98463.66;;;-1.28;100.00
46876;BME280;32866;50.160;14.768;2022-12-11T00:18:42;98454.84;;;-1.25;100.00
46876;BME280;32866;50.160;14.768;2022-12-11T00:21:11;98488.69;;;-1.02;100.00
46876;BME280;32866;50.160;14.768;2022-12-11T00:23:37;98444.06;;;-1.32;100.00
46876;BME280;32866;50.160;14.768;2022-12-11T00:26:05;98474.03;;;-1.30;100.00
46876;BME280;32866;50.160;14.768;2022-12-11T00:28:31;98475.22;;;-1.17;100.00
46876;BME280;32866;50.160;14.768;2022-12-11T00:30:56;98451.34;;;-1.43;100.00
46876;BME280;32866;50.160;14.768;2022-12-11T00:33:22;98442.53;;;-1.29;100.00
46876;BME280;32866;50.160;14.768;2022-12-11T00:35:47;98437.19;;;-1.22;100.00
46876;BME280;32866;50.160;14.768;2022-12-11T00:38:18;98474.44;;;-1.17;100.00
46876;BME280;32866;50.160;14.768;2022-12-11T00:40:44;98478.66;;;-1.20;100.00
46876;BME280;32866;50.160;14.768;2022-12-11T00:43:10;98490.97;;;-1.01;100.00
46876;BME280;32866;50.160;14.768;2022-12-11T00:45:43;98492.53;;;-1.07;100.00
46876;BME280;32866;50.160;14.768;2022-12-11T00:48:10;98494.84;;;-1.05;100.00
46876;BME280;32866;50.160;14.768;2022-12-11T00:50:36;98498.25;;;-1.19;100.00
46876;BME280;32866;50.160;14.768;2022-12-11T00:53:02;98492.13;;;-1.09;100.00
46876;BME280;32866;50.160;14.768;2022-12-11T00:55:28;98470.53;;;-1.41;100.00
46876;BME280;32866;50.160;14.768;2022-12-11T00:57:55;98492.84;;;-1.30;100.00
46876;BME280;32866;50.160;14.768;2022-12-11T01:00:22;98502.50;;;-1.11;100.00
46876;BME280;32866;50.160;14.768;2022-12-11T01:02:48;98501.72;;;-1.19;100.00
46876;BME280;32866;50.160;14.768;2022-12-11T01:05:14;98505.56;;;-1.20;100.00
46876;BME280;32866;50.160;14.768;2022-12-11T01:07:40;98468.59;;;-1.52;100.00
46876;BME280;32866;50.160;14.768;2022-12-11T01:10:05;98503.59;;;-1.26;100.00
46876;BME280;32866;50.160;14.768;2022-12-11T01:15:16;98497.50;;;-1.13;100.00
46876;BME280;32866;50.160;14.768;2022-12-11T01:17:41;98464.34;;;-1.56;100.00
46876;BME280;32866;50.160;14.768;2022-12-11T01:20:07;98479.34;;;-1.44;100.00
46876;BME280;32866;50.160;14.768;2022-12-11T01:22:32;98512.41;;;-1.33;100.00
46876;BME280;32866;50.160;14.768;2022-12-11T01:24:58;98479.31;;;-1.59;100.00
46876;BME280;32866;50.160;14.768;2022-12-11T01:27:23;98518.94;;;-1.34;100.00
46876;BME280;32866;50.160;14.768;2022-12-11T01:29:48;98496.19;;;-1.62;100.00
46876;BME280;32866;50.160;14.768;2022-12-11T01:32:14;98506.22;;;-1.48;100.00
46876;BME280;32866;50.160;14.768;2022-12-11T01:34:39;98492.47;;;-1.25;100.00
46876;BME280;32866;50.160;14.768;2022-12-11T01:37:05;98505.09;;;-1.36;100.00
46876;BME280;32866;50.160;14.768;2022-12-11T01:39:30;98501.25;;;-1.42;100.00
46876;BME280;32866;50.160;14.768;2022-12-11T01:41:59;98507.03;;;-1.40;100.00
46876;BME280;32866;50.160;14.768;2022-12-11T01:46:51;98499.31;;;-1.45;100.00
46876;BME280;32866;50.160;14.768;2022-12-11T01:49:18;98483.88;;;-1.63;100.00
46876;BME280;32866;50.160;14.768;2022-12-11T01:51:52;98496.25;;;-1.44;100.00
46876;BME280;32866;50.160;14.768;2022-12-11T01:54:20;98492.78;;;-1.52;100.00
46876;BME280;32866;50.160;14.768;2022-12-11T01:56:49;98489.38;;;-1.34;100.00
46876;BME280;32866;50.160;14.768;2022-12-11T01:59:18;98517.03;;;-1.37;100.00
46876;BME280;32866;50.160;14.768;2022-12-11T02:01:48;98513.97;;;-1.36;100.00
46876;BME280;32866;50.160;14.768;2022-12-11T02:04:15;98500.84;;;-1.44;100.00
46876;BME280;32866;50.160;14.768;2022-12-11T02:06:45;98496.22;;;-1.55;100.00
46876;BME280;32866;50.160;14.768;2022-12-11T02:09:13;98501.63;;;-1.44;100.00
46876;BME280;32866;50.160;14.768;2022-12-11T02:12:22;98462.34;;;-1.74;100.00
46876;BME280;32866;50.160;14.768;2022-12-11T02:26:29;98487.84;;;-1.32;100.00
46876;BME280;32866;50.160;14.768;2022-12-11T02:29:00;98487.03;;;-1.39;100.00
46876;BME280;32866;50.160;14.768;2022-12-11T02:31:31;98455.88;;;-1.62;100.00
46876;BME280;32866;50.160;14.768;2022-12-11T02:36:33;98486.28;;;-1.43;100.00
46876;BME280;32866;50.160;14.768;2022-12-11T02:39:00;98504.69;;;-1.45;100.00
46876;BME280;32866;50.160;14.768;2022-12-11T02:41:27;98500.06;;;-1.48;100.00
46876;BME280;32866;50.160;14.768;2022-12-11T02:43:55;98501.25;;;-1.42;100.00
46876;BME280;32866;50.160;14.768;2022-12-11T02:46:23;98443.91;;;-1.82;100.00
46876;BME280;32866;50.160;14.768;2022-12-11T02:48:50;98485.81;;;-1.60;100.00
46876;BME280;32866;50.160;14.768;2022-12-11T02:51:20;98484.72;;;-1.52;100.00
46876;BME280;32866;50.160;14.768;2022-12-11T02:53:47;98487.78;;;-1.53;100.00
46876;BME280;32866;50.160;14.768;2022-12-11T02:56:24;98481.56;;;-1.68;100.00
46876;BME280;32866;50.160;14.768;2022-12-11T02:58:54;98478.88;;;-1.64;100.00
46876;BME280;32866;50.160;14.768;2022-12-11T03:01:23;98487.75;;;-1.64;100.00
46876;BME280;32866;50.160;14.768;2022-12-11T03:03:49;98471.16;;;-1.80;100.00
46876;BME280;32866;50.160;14.768;2022-12-11T03:06:17;98457.63;;;-1.98;100.00
46876;BME280;32866;50.160;14.768;2022-12-11T03:08:44;98495.78;;;-1.64;100.00
46876;BME280;32866;50.160;14.768;2022-12-11T03:11:11;98485.06;;;-1.57;100.00
46876;BME280;32866;50.160;14.768;2022-12-11T03:13:38;98473.50;;;-1.64;100.00
46876;BME280;32866;50.160;14.768;2022-12-11T03:16:12;98493.84;;;-1.67;100.00
46876;BME280;32866;50.160;14.768;2022-12-11T03:18:50;98492.31;;;-1.64;100.00
46876;BME280;32866;50.160;14.768;2022-12-11T03:21:32;98486.91;;;-1.75;100.00
46876;BME280;32866;50.160;14.768;2022-12-11T03:27:14;98491.53;;;-1.72;100.00
46876;BME280;32866;50.160;14.768;2022-12-11T03:29:49;98475.31;;;-1.94;100.00
46876;BME280;32866;50.160;14.768;2022-12-11T03:32:20;98477.63;;;-1.92;100.00
46876;BME280;32866;50.160;14.768;2022-12-11T03:34:57;98494.94;;;-1.82;100.00
46876;BME280;32866;50.160;14.768;2022-12-11T03:37:25;98500.72;;;-1.73;100.00
46876;BME280;32866;50.160;14.768;2022-12-11T03:39:56;98496.44;;;-1.89;100.00
46876;BME280;32866;50.160;14.768;2022-12-11T03:42:23;98475.97;;;-2.11;100.00
46876;BME280;32866;50.160;14.768;2022-12-11T03:44:50;98509.88;;;-1.85;100.00
46876;BME280;32866;50.160;14.768;2022-12-11T03:47:19;98451.41;;;-2.13;100.00
46876;BME280;32866;50.160;14.768;2022-12-11T03:49:47;98470.66;;;-2.00;100.00
46876;BME280;32866;50.160;14.768;2022-12-11T03:52:14;98482.63;;;-1.87;100.00
46876;BME280;32866;50.160;14.768;2022-12-11T03:54:43;98503.38;;;-1.84;100.00
46876;BME280;32866;50.160;14.768;2022-12-11T03:57:13;98506.44;;;-1.85;100.00
46876;BME280;32866;50.160;14.768;2022-12-11T03:59:40;98516.38;;;-1.86;100.00
46876;BME280;32866;50.160;14.768;2022-12-11T04:02:05;98509.09;;;-1.93;100.00
46876;BME280;32866;50.160;14.768;2022-12-11T04:04:40;98508.66;;;-1.98;100.00
46876;BME280;32866;50.160;14.768;2022-12-11T04:07:06;98510.25;;;-1.90;100.00
46876;BME280;32866;50.160;14.768;2022-12-11T04:09:31;98509.41;;;-2.01;100.00
46876;BME280;32866;50.160;14.768;2022-12-11T04:11:57;98490.53;;;-2.16;100.00
46876;BME280;32866;50.160;14.768;2022-12-11T04:14:22;98504.41;;;-2.03;100.00
46876;BME280;32866;50.160;14.768;2022-12-11T04:17:06;98494.34;;;-2.17;100.00
46876;BME280;32866;50.160;14.768;2022-12-11T04:19:31;98502.84;;;-2.08;100.00
46876;BME280;32866;50.160;14.768;2022-12-11T04:22:16;98506.69;;;-2.05;100.00
46876;BME280;32866;50.160;14.768;2022-12-11T04:24:51;98485.16;;;-2.16;100.00
46876;BME280;32866;50.160;14.768;2022-12-11T04:27:17;98494.00;;;-2.12;100.00
46876;BME280;32866;50.160;14.768;2022-12-11T04:30:05;98498.16;;;-2.18;100.00
46876;BME280;32866;50.160;14.768;2022-12-11T04:32:30;98492.06;;;-2.11;100.00
46876;BME280;32866;50.160;14.768;2022-12-11T04:34:56;98494.81;;;-2.08;100.00
46876;BME280;32866;50.160;14.768;2022-12-11T04:37:21;98451.69;;;-2.33;100.00
46876;BME280;32866;50.160;14.768;2022-12-11T04:39:46;98461.63;;;-2.33;100.00
46876;BME280;32866;50.160;14.768;2022-12-11T04:42:12;98447.41;;;-2.45;100.00
46876;BME280;32866;50.160;14.768;2022-12-11T04:44:37;98444.28;;;-2.47;100.00
46876;BME280;32866;50.160;14.768;2022-12-11T04:47:02;98474.34;;;-2.27;100.00
46876;BME280;32866;50.160;14.768;2022-12-11T04:49:28;98463.44;;;-2.48;100.00
46876;BME280;32866;50.160;14.768;2022-12-11T04:51:53;98484.34;;;-2.24;100.00
46876;BME280;32866;50.160;14.768;2022-12-11T04:54:18;98459.69;;;-2.40;100.00
46876;BME280;32866;50.160;14.768;2022-12-11T04:56:44;98475.50;;;-2.28;100.00
46876;BME280;32866;50.160;14.768;2022-12-11T04:59:09;98464.63;;;-2.46;100.00
46876;BME280;32866;50.160;14.768;2022-12-11T05:01:35;98443.91;;;-2.45;100.00
46876;BME280;32866;50.160;14.768;2022-12-11T05:04:00;98474.78;;;-2.17;100.00
46876;BME280;32866;50.160;14.768;2022-12-11T05:06:25;98465.47;;;-2.34;100.00
46876;BME280;32866;50.160;14.768;2022-12-11T05:08:50;98466.59;;;-2.39;100.00
46876;BME280;32866;50.160;14.768;2022-12-11T05:11:16;98438.88;;;-2.57;100.00
46876;BME280;32866;50.160;14.768;2022-12-11T05:13:42;98469.66;;;-2.37;100.00
46876;BME280;32866;50.160;14.768;2022-12-11T05:16:09;98467.28;;;-2.49;100.00
46876;BME280;32866;50.160;14.768;2022-12-11T05:18:35;98458.00;;;-2.59;100.00
46876;BME280;32866;50.160;14.768;2022-12-11T05:21:03;98474.97;;;-2.48;100.00
46876;BME280;32866;50.160;14.768;2022-12-11T05:23:29;98437.97;;;-2.76;100.00
46876;BME280;32866;50.160;14.768;2022-12-11T05:25:55;98479.53;;;-2.48;100.00
46876;BME280;32866;50.160;14.768;2022-12-11T05:28:22;98490.34;;;-2.41;100.00
46876;BME280;32866;50.160;14.768;2022-12-11T05:31:15;98478.78;;;-2.49;100.00
46876;BME280;32866;50.160;14.768;2022-12-11T05:33:39;98444.06;;;-2.79;100.00
46876;BME280;32866;50.160;14.768;2022-12-11T05:36:05;98477.56;;;-2.58;100.00
46876;BME280;32866;50.160;14.768;2022-12-11T05:38:31;98484.88;;;-2.52;100.00
46876;BME280;32866;50.160;14.768;2022-12-11T05:41:00;98476.84;;;-2.52;100.00
46876;BME280;32866;50.160;14.768;2022-12-11T05:43:26;98476.44;;;-2.57;100.00
46876;BME280;32866;50.160;14.768;2022-12-11T05:45:52;98476.44;;;-2.54;100.00
46876;BME280;32866;50.160;14.768;2022-12-11T05:48:18;98479.53;;;-2.48;100.00
46876;BME280;32866;50.160;14.768;2022-12-11T05:50:43;98475.63;;;-2.62;100.00
46876;BME280;32866;50.160;14.768;2022-12-11T05:53:08;98487.94;;;-2.53;100.00
46876;BME280;32866;50.160;14.768;2022-12-11T05:55:34;98485.59;;;-2.62;100.00
46876;BME280;32866;50.160;14.768;2022-12-11T05:57:59;98454.75;;;-2.83;100.00
46876;BME280;32866;50.160;14.768;2022-12-11T06:00:30;98486.78;;;-2.56;100.00
46876;BME280;32866;50.160;14.768;2022-12-11T06:02:55;98490.25;;;-2.52;100.00
46876;BME280;32866;50.160;14.768;2022-12-11T06:05:20;98491.47;;;-2.46;100.00
46876;BME280;32866;50.160;14.768;2022-12-11T06:07:45;98459.75;;;-2.81;100.00
46876;BME280;32866;50.160;14.768;2022-12-11T06:10:11;98460.91;;;-2.78;100.00
46876;BME280;32866;50.160;14.768;2022-12-11T06:12:37;98465.47;;;-2.86;100.00
46876;BME280;32866;50.160;14.768;2022-12-11T06:15:02;98467.47;;;-2.76;100.00
46876;BME280;32866;50.160;14.768;2022-12-11T06:17:29;98498.69;;;-2.53;100.00
46876;BME280;32866;50.160;14.768;2022-12-11T06:19:54;98479.28;;;-2.84;100.00
46876;BME280;32866;50.160;14.768;2022-12-11T06:22:20;98476.97;;;-2.82;100.00
46876;BME280;32866;50.160;14.768;2022-12-11T06:24:45;98494.03;;;-2.56;100.00
46876;BME280;32866;50.160;14.768;2022-12-11T06:27:12;98500.53;;;-2.65;100.00
46876;BME280;32866;50.160;14.768;2022-12-11T06:29:37;98496.78;;;-2.53;100.00
46876;BME280;32866;50.160;14.768;2022-12-11T06:32:02;98455.47;;;-2.89;100.00
46876;BME280;32866;50.160;14.768;2022-12-11T06:34:28;98496.28;;;-2.66;100.00
46876;BME280;32866;50.160;14.768;2022-12-11T06:36:53;98511.66;;;-2.63;100.00
46876;BME280;32866;50.160;14.768;2022-12-11T06:39:18;98481.59;;;-2.79;100.00
46876;BME280;32866;50.160;14.768;2022-12-11T06:41:44;98514.38;;;-2.55;100.00
46876;BME280;32866;50.160;14.768;2022-12-11T06:44:09;98480.06;;;-2.80;100.00
46876;BME280;32866;50.160;14.768;2022-12-11T06:46:35;98526.31;;;-2.49;100.00
46876;BME280;32866;50.160;14.768;2022-12-11T06:49:00;98529.38;;;-2.51;100.00
46876;BME280;32866;50.160;14.768;2022-12-11T06:51:25;98543.44;;;-2.65;100.00
46876;BME280;32866;50.160;14.768;2022-12-11T06:53:52;98526.91;;;-2.67;100.00
46876;BME280;32866;50.160;14.768;2022-12-11T06:56:19;98528.41;;;-2.73;100.00
46876;BME280;32866;50.160;14.768;2022-12-11T06:58:44;98533.94;;;-2.55;100.00
46876;BME280;32866;50.160;14.768;2022-12-11T07:01:21;98538.13;;;-2.57;100.00
46876;BME280;32866;50.160;14.768;2022-12-11T07:03:47;98527.00;;;-2.59;100.00
46876;BME280;32866;50.160;14.768;2022-12-11T07:06:12;98527.75;;;-2.63;100.00
46876;BME280;32866;50.160;14.768;2022-12-11T07:08:38;98539.25;;;-2.58;100.00
46876;BME280;32866;50.160;14.768;2022-12-11T07:11:06;98515.72;;;-2.80;100.00
46876;BME280;32866;50.160;14.768;2022-12-11T07:13:32;98536.13;;;-2.68;100.00
46876;BME280;32866;50.160;14.768;2022-12-11T07:15:58;98539.28;;;-2.55;100.00
46876;BME280;32866;50.160;14.768;2022-12-11T07:18:26;98515.19;;;-2.92;100.00
46876;BME280;32866;50.160;14.768;2022-12-11T07:20:51;98547.28;;;-2.62;100.00
46876;BME280;32866;50.160;14.768;2022-12-11T07:23:16;98551.56;;;-2.54;100.00
46876;BME280;32866;50.160;14.768;2022-12-11T07:25:42;98563.00;;;-2.61;100.00
46876;BME280;32866;50.160;14.768;2022-12-11T07:28:07;98561.13;;;-2.56;100.00
46876;BME280;32866;50.160;14.768;2022-12-11T07:30:32;98522.19;;;-2.84;100.00
46876;BME280;32866;50.160;14.768;2022-12-11T07:32:58;98522.31;;;-2.70;100.00
46876;BME280;32866;50.160;14.768;2022-12-11T07:35:23;98519.50;;;-2.84;100.00
46876;BME280;32866;50.160;14.768;2022-12-11T07:37:49;98513.00;;;-2.83;100.00
46876;BME280;32866;50.160;14.768;2022-12-11T07:40:15;98546.97;;;-2.53;100.00
46876;BME280;32866;50.160;14.768;2022-12-11T07:42:40;98513.25;;;-2.95;100.00
46876;BME280;32866;50.160;14.768;2022-12-11T07:45:06;98509.44;;;-2.94;100.00
46876;BME280;32866;50.160;14.768;2022-12-11T07:47:32;98552.69;;;-2.55;100.00
46876;BME280;32866;50.160;14.768;2022-12-11T07:49:57;98539.06;;;-2.80;100.00
46876;BME280;32866;50.160;14.768;2022-12-11T07:52:23;98563.88;;;-2.53;100.00
46876;BME280;32866;50.160;14.768;2022-12-11T07:54:48;98573.81;;;-2.53;100.00
46876;BME280;32866;50.160;14.768;2022-12-11T07:57:13;98537.56;;;-2.77;100.00
46876;BME280;32866;50.160;14.768;2022-12-11T07:59:39;98549.09;;;-2.73;100.00
46876;BME280;32866;50.160;14.768;2022-12-11T08:02:05;98568.16;;;-2.45;100.00
46876;BME280;32866;50.160;14.768;2022-12-11T08:04:31;98576.97;;;-2.44;100.00
46876;BME280;32866;50.160;14.768;2022-12-11T08:06:56;98577.72;;;-2.44;100.00
46876;BME280;32866;50.160;14.768;2022-12-11T08:09:22;98546.97;;;-2.53;100.00
46876;BME280;32866;50.160;14.768;2022-12-11T08:11:50;98573.22;;;-2.32;100.00
46876;BME280;32866;50.160;14.768;2022-12-11T08:14:16;98578.59;;;-2.32;100.00
46876;BME280;32866;50.160;14.768;2022-12-11T08:16:42;98581.25;;;-2.36;100.00
46876;BME280;32866;50.160;14.768;2022-12-11T08:19:08;98586.19;;;-2.42;100.00
46876;BME280;32866;50.160;14.768;2022-12-11T08:21:34;98578.50;;;-2.43;100.00
46876;BME280;32866;50.160;14.768;2022-12-11T08:23:59;98552.19;;;-2.71;100.00
46876;BME280;32866;50.160;14.768;2022-12-11T08:26:27;98582.09;;;-2.25;100.00
46876;BME280;32866;50.160;14.768;2022-12-11T08:28:53;98576.28;;;-2.34;100.00
46876;BME280;32866;50.160;14.768;2022-12-11T08:31:19;98579.69;;;-2.37;100.00
46876;BME280;32866;50.160;14.768;2022-12-11T08:33:45;98552.28;;;-2.61;100.00
46876;BME280;32866;50.160;14.768;2022-12-11T08:36:12;98581.81;;;-2.16;100.00
46876;BME280;32866;50.160;14.768;2022-12-11T08:38:38;98580.97;;;-2.24;100.00
46876;BME280;32866;50.160;14.768;2022-12-11T08:41:12;98582.19;;;-2.14;100.00
46876;BME280;32866;50.160;14.768;2022-12-11T08:43:38;98588.00;;;-2.08;100.00
46876;BME280;32866;50.160;14.768;2022-12-11T08:46:04;98584.94;;;-2.03;100.00
46876;BME280;32866;50.160;14.768;2022-12-11T08:48:29;98578.81;;;-2.07;100.00
46876;BME280;32866;50.160;14.768;2022-12-11T08:50:58;98538.47;;;-2.14;100.00
46876;BME280;32866;50.160;14.768;2022-12-11T08:53:24;98567.41;;;-1.90;100.00
46876;BME280;32866;50.160;14.768;2022-12-11T08:55:49;98570.34;;;-2.13;100.00
46876;BME280;32866;50.160;14.768;2022-12-11T08:58:15;98582.63;;;-2.08;100.00
46876;BME280;32866;50.160;14.768;2022-12-11T09:00:40;98576.78;;;-2.21;100.00
46876;BME280;32866;50.160;14.768;2022-12-11T09:03:05;98590.38;;;-1.99;100.00
46876;BME280;32866;50.160;14.768;2022-12-11T09:05:31;98589.59;;;-2.00;100.00
46876;BME280;32866;50.160;14.768;2022-12-11T09:07:57;98606.16;;;-1.91;100.00
46876;BME280;32866;50.160;14.768;2022-12-11T09:10:22;98602.06;;;-1.70;100.00
46876;BME280;32866;50.160;14.768;2022-12-11T09:12:47;98598.88;;;-1.87;100.00
46876;BME280;32866;50.160;14.768;2022-12-11T09:15:13;98554.97;;;-2.12;100.00
46876;BME280;32866;50.160;14.768;2022-12-11T09:17:38;98586.56;;;-1.95;100.00
46876;BME280;32866;50.160;14.768;2022-12-11T09:20:04;98556.41;;;-2.26;100.00
46876;BME280;32866;50.160;14.768;2022-12-11T09:22:31;98583.59;;;-1.82;100.00
46876;BME280;32866;50.160;14.768;2022-12-11T09:24:57;98547.81;;;-1.94;100.00
46876;BME280;32866;50.160;14.768;2022-12-11T09:27:22;98545.13;;;-1.94;100.00
46876;BME280;32866;50.160;14.768;2022-12-11T09:29:47;98576.00;;;-1.66;100.00
46876;BME280;32866;50.160;14.768;2022-12-11T09:32:13;98551.34;;;-1.82;100.00
46876;BME280;32866;50.160;14.768;2022-12-11T09:34:39;98588.78;;;-1.45;100.00
46876;BME280;32866;50.160;14.768;2022-12-11T09:37:04;98590.75;;;-1.35;100.00
46876;BME280;32866;50.160;14.768;2022-12-11T09:39:29;98598.03;;;-1.42;100.00
46876;BME280;32866;50.160;14.768;2022-12-11T09:42:13;98596.50;;;-1.40;100.00
46876;BME280;32866;50.160;14.768;2022-12-11T09:44:59;98578.34;;;-1.61;100.00
46876;BME280;32866;50.160;14.768;2022-12-11T09:47:40;98589.25;;;-1.28;100.00
46876;BME280;32866;50.160;14.768;2022-12-11T09:55:15;98585.56;;;-0.88;100.00
46876;BME280;32866;50.160;14.768;2022-12-11T10:00:31;98579.41;;;-0.92;100.00
46876;BME280;32866;50.160;14.768;2022-12-11T10:05:54;98562.22;;;-0.33;100.00
46876;BME280;32866;50.160;14.768;2022-12-11T10:11:30;98558.72;;;-0.30;100.00
46876;BME280;32866;50.160;14.768;2022-12-11T10:16:37;98554.66;;;0.79;100.00
46876;BME280;32866;50.160;14.768;2022-12-11T10:19:04;98538.59;;;0.50;100.00
46876;BME280;32866;50.160;14.768;2022-12-11T10:21:35;98564.16;;;1.12;100.00
46876;BME280;32866;50.160;14.768;2022-12-11T10:24:04;98570.84;;;0.86;100.00
46876;BME280;32866;50.160;14.768;2022-12-11T10:26:37;98547.97;;;-0.12;100.00
46876;BME280;32866;50.160;14.768;2022-12-11T10:29:11;98559.13;;;-0.14;100.00
46876;BME280;32866;50.160;14.768;2022-12-11T10:31:55;98552.19;;;-0.58;100.00
46876;BME280;32866;50.160;14.768;2022-12-11T10:36:54;98554.41;;;-0.96;100.00
46876;BME280;32866;50.160;14.768;2022-12-11T10:39:21;98519.28;;;-1.43;100.00
46876;BME280;32866;50.160;14.768;2022-12-11T10:41:49;98558.56;;;-1.24;100.00
46876;BME280;32866;50.160;14.768;2022-12-11T10:44:20;98549.19;;;-1.52;100.00
46876;BME280;32866;50.160;14.768;2022-12-11T10:46:48;98556.41;;;-1.70;100.00
46876;BME280;32866;50.160;14.768;2022-12-11T10:49:26;98549.47;;;-1.71;100.00
46876;BME280;32866;50.160;14.768;2022-12-11T10:51:53;98551.03;;;-1.70;100.00
46876;BME280;32866;50.160;14.768;2022-12-11T10:54:30;98550.94;;;-1.84;100.00
46876;BME280;32866;50.160;14.768;2022-12-11T10:56:56;98538.63;;;-1.93;100.00
46876;BME280;32866;50.160;14.768;2022-12-11T10:59:43;98536.75;;;-1.81;100.00
46876;BME280;32866;50.160;14.768;2022-12-11T11:02:24;98533.59;;;-1.98;100.00
46876;BME280;32866;50.160;14.768;2022-12-11T11:04:52;98522.09;;;-1.95;100.00
46876;BME280;32866;50.160;14.768;2022-12-11T11:09:44;98534.28;;;-2.08;100.00
46876;BME280;32866;50.160;14.768;2022-12-11T11:12:21;98533.59;;;-1.98;100.00
46876;BME280;32866;50.160;14.768;2022-12-11T11:14:59;98499.72;;;-2.13;100.00
46876;BME280;32866;50.160;14.768;2022-12-11T11:17:25;98505.47;;;-2.15;100.00
46876;BME280;32866;50.160;14.768;2022-12-11T11:19:51;98496.63;;;-2.22;100.00
46876;BME280;32866;50.160;14.768;2022-12-11T11:22:18;98527.06;;;-1.97;100.00
46876;BME280;32866;50.160;14.768;2022-12-11T11:27:35;98485.06;;;-2.27;100.00
46876;BME280;32866;50.160;14.768;2022-12-11T11:30:17;98524.50;;;-1.82;100.00
46876;BME280;32866;50.160;14.768;2022-12-11T11:32:43;98514.25;;;-1.55;100.00
46876;BME280;32866;50.160;14.768;2022-12-11T11:37:38;98492.84;;;-1.37;100.00
46876;BME280;32866;50.160;14.768;2022-12-11T11:40:28;98517.50;;;-1.03;100.00
46876;BME280;32866;50.160;14.768;2022-12-11T11:43:09;98500.59;;;-1.00;100.00
46876;BME280;32866;50.160;14.768;2022-12-11T11:45:56;98512.53;;;-0.86;100.00
46876;BME280;32866;50.160;14.768;2022-12-11T11:48:29;98506.38;;;-0.94;100.00
46876;BME280;32866;50.160;14.768;2022-12-11T11:50:58;98507.13;;;-1.01;100.00
46876;BME280;32866;50.160;14.768;2022-12-11T11:53:31;98503.25;;;-1.14;100.00
46876;BME280;32866;50.160;14.768;2022-12-11T11:56:20;98498.69;;;-0.99;100.00
46876;BME280;32866;50.160;14.768;2022-12-11T11:59:14;98503.22;;;-1.28;100.00
46876;BME280;32866;50.160;14.768;2022-12-11T12:01:43;98492.66;;;-1.77;100.00
46876;BME280;32866;50.160;14.768;2022-12-11T12:04:09;98506.09;;;-1.73;100.00
46876;BME280;32866;50.160;14.768;2022-12-11T12:09:19;98494.63;;;-1.63;100.00
46876;BME280;32866;50.160;14.768;2022-12-11T12:17:52;98495.06;;;-1.54;100.00
46876;BME280;32866;50.160;14.768;2022-12-11T12:20:24;98494.28;;;-1.58;100.00
46876;BME280;32866;50.160;14.768;2022-12-11T12:22:56;98483.94;;;-1.48;100.00
46876;BME280;32866;50.160;14.768;2022-12-11T12:25:44;98483.09;;;-1.74;100.00
46876;BME280;32866;50.160;14.768;2022-12-11T12:28:21;98445.38;;;-1.99;100.00
46876;BME280;32866;50.160;14.768;2022-12-11T12:36:02;98450.00;;;-1.89;100.00
46876;BME280;32866;50.160;14.768;2022-12-11T12:38:41;98446.88;;;-1.98;100.00
46876;BME280;32866;50.160;14.768;2022-12-11T12:41:21;98480.81;;;-1.61;100.00
46876;BME280;32866;50.160;14.768;2022-12-11T12:44:05;98480.00;;;-1.73;100.00
46876;BME280;32866;50.160;14.768;2022-12-11T12:46:54;98459.66;;;-1.74;100.00
46876;BME280;32866;50.160;14.768;2022-12-11T12:49:31;98427.75;;;-1.90;100.00
46876;BME280;32866;50.160;14.768;2022-12-11T12:51:59;98460.03;;;-1.75;100.00
46876;BME280;32866;50.160;14.768;2022-12-11T12:54:26;98467.72;;;-1.74;100.00
46876;BME280;32866;50.160;14.768;2022-12-11T12:56:53;98436.97;;;-1.83;100.00
46876;BME280;32866;50.160;14.768;2022-12-11T12:59:23;98464.69;;;-1.61;100.00
46876;BME280;32866;50.160;14.768;2022-12-11T13:01:52;98463.94;;;-1.62;100.00
46876;BME280;32866;50.160;14.768;2022-12-11T13:04:40;98462.75;;;-1.72;100.00
46876;BME280;32866;50.160;14.768;2022-12-11T13:07:12;98461.16;;;-1.83;100.00
46876;BME280;32866;50.160;14.768;2022-12-11T13:09:38;98456.13;;;-1.96;100.00
46876;BME280;32866;50.160;14.768;2022-12-11T13:12:12;98459.94;;;-1.97;100.00
46876;BME280;32866;50.160;14.768;2022-12-11T13:14:38;98452.72;;;-1.85;100.00
46876;BME280;32866;50.160;14.768;2022-12-11T13:19:43;98441.97;;;-1.85;100.00
46876;BME280;32866;50.160;14.768;2022-12-11T13:24:48;98467.59;;;-0.50;100.00
46876;BME280;32866;50.160;14.768;2022-12-11T13:27:37;98473.25;;;0.10;100.00
46876;BME280;32866;50.160;14.768;2022-12-11T13:33:05;98477.81;;;0.31;100.00
46876;BME280;32866;50.160;14.768;2022-12-11T13:35:32;98470.97;;;0.12;100.00
46876;BME280;32866;50.160;14.768;2022-12-11T13:38:03;98452.19;;;-0.64;100.00
46876;BME280;32866;50.160;14.768;2022-12-11T13:40:39;98449.91;;;-0.87;100.00
46876;BME280;32866;50.160;14.768;2022-12-11T13:43:15;98472.88;;;-1.29;100.00
46876;BME280;32866;50.160;14.768;2022-12-11T13:48:37;98475.50;;;-1.51;100.00
46876;BME280;32866;50.160;14.768;2022-12-11T13:51:04;98443.81;;;-2.04;100.00
46876;BME280;32866;50.160;14.768;2022-12-11T13:53:31;98443.69;;;-2.26;100.00
46876;BME280;32866;50.160;14.768;2022-12-11T13:56:02;98489.72;;;-2.20;100.00
46876;BME280;32866;50.160;14.768;2022-12-11T13:58:28;98479.28;;;-2.32;100.00
46876;BME280;32866;50.160;14.768;2022-12-11T14:01:13;98481.22;;;-2.29;100.00
46876;BME280;32866;50.160;14.768;2022-12-11T14:03:46;98487.31;;;-2.39;100.00